sensor_id;sensor_type;location;lat;lon;timestamp;P1;durP1;ratioP1;P2;durP2;ratioP2
31010;SDS011;26395;53.412;19.598;2022-10-17T00:08:56;55.90;;;28.30;;
31010;SDS011;26395;53.412;19.598;2022-10-17T00:23:59;39.90;;;21.90;;
31010;SDS011;26395;53.412;19.598;2022-10-17T00:39:02;57.00;;;25.20;;
31010;SDS011;26395;53.412;19.598;2022-10-17T00:54:06;52.90;;;24.30;;
31010;SDS011;26395;53.412;19.598;2022-10-17T01:09:11;84.50;;;37.90;;
31010;SDS011;26395;53.412;19.598;2022-10-17T01:40:01;56.90;;;26.20;;
31010;SDS011;26395;53.412;19.598;2022-10-17T01:55:14;46.40;;;22.30;;
31010;SDS011;26395;53.412;19.598;2022-10-17T02:40:50;91.80;;;35.50;;
31010;SDS011;26395;53.412;19.598;2022-10-17T02:55:59;97.30;;;36.60;;
31010;SDS011;26395;53.412;19.598;2022-10-17T03:11:07;100.50;;;40.40;;
31010;SDS011;26395;53.412;19.598;2022-10-17T03:26:10;89.60;;;35.70;;
31010;SDS011;26395;53.412;19.598;2022-10-17T03:41:14;68.30;;;27.50;;
31010;SDS011;26395;53.412;19.598;2022-10-17T03:56:18;89.80;;;39.70;;
31010;SDS011;26395;53.412;19.598;2022-10-17T04:11:41;109.70;;;48.80;;
31010;SDS011;26395;53.412;19.598;2022-10-17T04:26:44;72.00;;;34.30;;
31010;SDS011;26395;53.412;19.598;2022-10-17T04:41:48;68.10;;;34.00;;
31010;SDS011;26395;53.412;19.598;2022-10-17T04:56:52;59.50;;;29.20;;
31010;SDS011;26395;53.412;19.598;2022-10-17T05:11:55;69.90;;;34.40;;
31010;SDS011;26395;53.412;19.598;2022-10-17T05:27:00;170.00;;;84.40;;
31010;SDS011;26395;53.412;19.598;2022-10-17T05:42:03;100.30;;;49.70;;
31010;SDS011;26395;53.412;19.598;2022-10-17T05:57:07;90.80;;;45.60;;
31010;SDS011;26395;53.412;19.598;2022-10-17T06:12:11;136.00;;;56.00;;
31010;SDS011;26395;53.412;19.598;2022-10-17T06:27:16;112.80;;;54.60;;
31010;SDS011;26395;53.412;19.598;2022-10-17T06:42:20;76.20;;;38.00;;
31010;SDS011;26395;53.412;19.598;2022-10-17T06:57:44;109.10;;;57.00;;
31010;SDS011;26395;53.412;19.598;2022-10-17T07:13:06;143.10;;;74.70;;
31010;SDS011;26395;53.412;19.598;2022-10-17T07:28:13;99.40;;;56.40;;
31010;SDS011;26395;53.412;19.598;2022-10-17T07:43:17;86.40;;;51.50;;
31010;SDS011;26395;53.412;19.598;2022-10-17T07:58:20;76.50;;;46.90;;
31010;SDS011;26395;53.412;19.598;2022-10-17T08:13:24;57.90;;;35.00;;
31010;SDS011;26395;53.412;19.598;2022-10-17T08:28:27;17.90;;;13.90;;
31010;SDS011;26395;53.412;19.598;2022-10-17T08:59:20;16.80;;;12.90;;
31010;SDS011;26395;53.412;19.598;2022-10-17T09:14:32;14.80;;;11.80;;
31010;SDS011;26395;53.412;19.598;2022-10-17T09:29:47;14.20;;;11.60;;
31010;SDS011;26395;53.412;19.598;2022-10-17T09:45:12;14.70;;;11.40;;
31010;SDS011;26395;53.412;19.598;2022-10-17T10:15:34;15.80;;;13.80;;
31010;SDS011;26395;53.412;19.598;2022-10-17T10:45:49;21.20;;;18.90;;
31010;SDS011;26395;53.412;19.598;2022-10-17T11:25:02;16.20;;;14.00;;
31010;SDS011;26395;53.412;19.598;2022-10-17T11:40:14;15.40;;;12.50;;
31010;SDS011;26395;53.412;19.598;2022-10-17T11:55:27;18.60;;;14.90;;
31010;SDS011;26395;53.412;19.598;2022-10-17T12:25:49;22.10;;;15.40;;
31010;SDS011;26395;53.412;19.598;2022-10-17T12:41:06;17.70;;;13.30;;
31010;SDS011;26395;53.412;19.598;2022-10-17T13:11:48;21.80;;;14.90;;
31010;SDS011;26395;53.412;19.598;2022-10-17T13:26:53;20.90;;;13.50;;
31010;SDS011;26395;53.412;19.598;2022-10-17T13:41:56;18.50;;;13.20;;
31010;SDS011;26395;53.412;19.598;2022-10-17T13:57:01;16.60;;;12.90;;
31010;SDS011;26395;53.412;19.598;2022-10-17T14:12:08;27.40;;;18.40;;
31010;SDS011;26395;53.412;19.598;2022-10-17T14:27:29;21.30;;;15.10;;
31010;SDS011;26395;53.412;19.598;2022-10-17T14:42:37;24.00;;;18.30;;
31010;SDS011;26395;53.412;19.598;2022-10-17T14:57:43;22.20;;;16.50;;
31010;SDS011;26395;53.412;19.598;2022-10-17T15:12:48;47.30;;;26.00;;
31010;SDS011;26395;53.412;19.598;2022-10-17T15:28:07;25.80;;;18.60;;
31010;SDS011;26395;53.412;19.598;2022-10-17T15:43:13;30.00;;;21.70;;
31010;SDS011;26395;53.412;19.598;2022-10-17T15:58:21;39.00;;;24.90;;
31010;SDS011;26395;53.412;19.598;2022-10-17T16:13:24;39.50;;;28.70;;
31010;SDS011;26395;53.412;19.598;2022-10-17T16:28:27;38.30;;;28.30;;
31010;SDS011;26395;53.412;19.598;2022-10-17T16:43:31;41.60;;;27.10;;
31010;SDS011;26395;53.412;19.598;2022-10-17T16:58:38;36.50;;;26.20;;
31010;SDS011;26395;53.412;19.598;2022-10-17T17:13:42;47.40;;;31.10;;
31010;SDS011;26395;53.412;19.598;2022-10-17T17:28:47;40.60;;;28.20;;
31010;SDS011;26395;53.412;19.598;2022-10-17T17:43:51;41.80;;;28.30;;
31010;SDS011;26395;53.412;19.598;2022-10-17T17:58:56;40.00;;;25.80;;
31010;SDS011;26395;53.412;19.598;2022-10-17T18:14:03;41.80;;;27.40;;
31010;SDS011;26395;53.412;19.598;2022-10-17T18:29:09;43.70;;;26.80;;
31010;SDS011;26395;53.412;19.598;2022-10-17T18:44:15;42.90;;;26.60;;
31010;SDS011;26395;53.412;19.598;2022-10-17T18:59:19;37.20;;;27.10;;
31010;SDS011;26395;53.412;19.598;2022-10-17T19:14:27;38.90;;;25.00;;
31010;SDS011;26395;53.412;19.598;2022-10-17T19:29:32;41.00;;;25.20;;
31010;SDS011;26395;53.412;19.598;2022-10-17T19:44:36;35.60;;;23.30;;
31010;SDS011;26395;53.412;19.598;2022-10-17T19:59:39;41.70;;;23.80;;
31010;SDS011;26395;53.412;19.598;2022-10-17T20:14:43;37.70;;;23.00;;
31010;SDS011;26395;53.412;19.598;2022-10-17T20:29:46;38.30;;;21.90;;
31010;SDS011;26395;53.412;19.598;2022-10-17T20:44:49;33.50;;;21.80;;
31010;SDS011;26395;53.412;19.598;2022-10-17T20:59:52;35.30;;;21.30;;
31010;SDS011;26395;53.412;19.598;2022-10-17T21:14:56;36.20;;;20.40;;
31010;SDS011;26395;53.412;19.598;2022-10-17T21:29:59;36.60;;;22.20;;
31010;SDS011;26395;53.412;19.598;2022-10-17T21:45:02;35.30;;;20.70;;
31010;SDS011;26395;53.412;19.598;2022-10-17T22:00:17;42.10;;;24.50;;
31010;SDS011;26395;53.412;19.598;2022-10-17T22:15:21;47.80;;;26.60;;
31010;SDS011;26395;53.412;19.598;2022-10-17T22:30:24;36.20;;;22.40;;
31010;SDS011;26395;53.412;19.598;2022-10-17T22:45:27;42.20;;;25.70;;
31010;SDS011;26395;53.412;19.598;2022-10-17T23:00:30;41.00;;;24.30;;
31010;SDS011;26395;53.412;19.598;2022-10-17T23:15:33;44.30;;;23.60;;
31010;SDS011;26395;53.412;19.598;2022-10-17T23:30:37;45.30;;;26.00;;
31010;SDS011;26395;53.412;19.598;2022-10-17T23:45:41;37.50;;;22.90;;
